sensor_id;sensor_type;location;lat;lon;timestamp;temperature;humidity
52203;DHT22;38173;52.850;6.970;2023-04-03T00:00:20;1.80;99.90
52203;DHT22;38173;52.850;6.970;2023-04-03T00:02:46;1.70;99.90
52203;DHT22;38173;52.850;6.970;2023-04-03T00:05:11;1.70;99.90
52203;DHT22;38173;52.850;6.970;2023-04-03T00:07:37;1.70;99.90
52203;DHT22;38173;52.850;6.970;2023-04-03T00:10:03;1.70;99.90
52203;DHT22;38173;52.850;6.970;2023-04-03T00:12:28;1.60;99.90
52203;DHT22;38173;52.850;6.970;2023-04-03T00:14:54;1.60;99.90
52203;DHT22;38173;52.850;6.970;2023-04-03T00:17:19;1.60;99.90
52203;DHT22;38173;52.850;6.970;2023-04-03T00:19:45;1.60;99.90
52203;DHT22;38173;52.850;6.970;2023-04-03T00:22:14;1.60;99.90
52203;DHT22;38173;52.850;6.970;2023-04-03T00:24:40;1.50;99.90
52203;DHT22;38173;52.850;6.970;2023-04-03T00:27:06;1.50;99.90
52203;DHT22;38173;52.850;6.970;2023-04-03T00:29:32;1.50;99.90
52203;DHT22;38173;52.850;6.970;2023-04-03T00:31:58;1.40;99.90
52203;DHT22;38173;52.850;6.970;2023-04-03T00:34:23;1.40;99.90
52203;DHT22;38173;52.850;6.970;2023-04-03T00:36:52;1.40;99.90
52203;DHT22;38173;52.850;6.970;2023-04-03T00:39:27;1.40;99.90
52203;DHT22;38173;52.850;6.970;2023-04-03T00:41:52;1.40;99.90
52203;DHT22;38173;52.850;6.970;2023-04-03T00:46:53;1.30;99.90
52203;DHT22;38173;52.850;6.970;2023-04-03T00:49:19;1.30;99.90
52203;DHT22;38173;52.850;6.970;2023-04-03T00:51:45;1.30;99.90
52203;DHT22;38173;52.850;6.970;2023-04-03T00:54:11;1.30;99.90
52203;DHT22;38173;52.850;6.970;2023-04-03T00:56:40;1.20;99.90
52203;DHT22;38173;52.850;6.970;2023-04-03T00:59:10;1.20;99.90
52203;DHT22;38173;52.850;6.970;2023-04-03T01:01:37;1.20;99.90
52203;DHT22;38173;52.850;6.970;2023-04-03T01:04:03;1.20;99.90
52203;DHT22;38173;52.850;6.970;2023-04-03T01:06:30;1.20;99.90
52203;DHT22;38173;52.850;6.970;2023-04-03T01:08:58;1.10;99.90
52203;DHT22;38173;52.850;6.970;2023-04-03T01:11:24;1.10;99.90
52203;DHT22;38173;52.850;6.970;2023-04-03T01:13:50;1.10;99.90
52203;DHT22;38173;52.850;6.970;2023-04-03T01:16:16;1.10;99.90
52203;DHT22;38173;52.850;6.970;2023-04-03T01:18:41;1.00;99.90
52203;DHT22;38173;52.850;6.970;2023-04-03T01:26:05;0.90;99.90
52203;DHT22;38173;52.850;6.970;2023-04-03T01:28:32;0.90;99.90
52203;DHT22;38173;52.850;6.970;2023-04-03T01:33:33;0.90;99.90
52203;DHT22;38173;52.850;6.970;2023-04-03T01:36:01;0.90;99.90
52203;DHT22;38173;52.850;6.970;2023-04-03T01:38:27;0.90;99.90
52203;DHT22;38173;52.850;6.970;2023-04-03T01:40:53;0.90;99.90
52203;DHT22;38173;52.850;6.970;2023-04-03T01:43:19;0.80;99.90
52203;DHT22;38173;52.850;6.970;2023-04-03T01:45:44;0.80;99.90
52203;DHT22;38173;52.850;6.970;2023-04-03T01:48:12;0.80;99.90
52203;DHT22;38173;52.850;6.970;2023-04-03T01:50:37;0.80;99.90
52203;DHT22;38173;52.850;6.970;2023-04-03T01:53:03;0.70;99.90
52203;DHT22;38173;52.850;6.970;2023-04-03T01:55:29;0.70;99.90
52203;DHT22;38173;52.850;6.970;2023-04-03T01:57:55;0.70;99.90
52203;DHT22;38173;52.850;6.970;2023-04-03T02:00:21;0.70;99.90
52203;DHT22;38173;52.850;6.970;2023-04-03T02:02:46;0.60;99.90
52203;DHT22;38173;52.850;6.970;2023-04-03T02:05:12;0.60;99.90
52203;DHT22;38173;52.850;6.970;2023-04-03T02:07:37;0.60;99.90
52203;DHT22;38173;52.850;6.970;2023-04-03T02:10:03;0.60;99.90
52203;DHT22;38173;52.850;6.970;2023-04-03T02:12:30;0.50;99.90
52203;DHT22;38173;52.850;6.970;2023-04-03T02:15:00;0.50;99.90
52203;DHT22;38173;52.850;6.970;2023-04-03T02:17:26;0.40;99.90
52203;DHT22;38173;52.850;6.970;2023-04-03T02:19:51;0.40;99.90
52203;DHT22;38173;52.850;6.970;2023-04-03T02:22:17;0.40;99.90
52203;DHT22;38173;52.850;6.970;2023-04-03T02:24:43;0.40;99.90
52203;DHT22;38173;52.850;6.970;2023-04-03T02:27:10;0.40;99.90
52203;DHT22;38173;52.850;6.970;2023-04-03T02:29:35;0.40;99.90
52203;DHT22;38173;52.850;6.970;2023-04-03T02:32:01;0.30;99.90
52203;DHT22;38173;52.850;6.970;2023-04-03T02:34:26;0.30;99.90
52203;DHT22;38173;52.850;6.970;2023-04-03T02:36:52;0.30;99.90
52203;DHT22;38173;52.850;6.970;2023-04-03T02:39:19;0.30;99.90
52203;DHT22;38173;52.850;6.970;2023-04-03T02:41:45;0.30;99.90
52203;DHT22;38173;52.850;6.970;2023-04-03T02:44:11;0.30;99.90
52203;DHT22;38173;52.850;6.970;2023-04-03T02:46:37;0.30;99.90
52203;DHT22;38173;52.850;6.970;2023-04-03T02:49:03;0.20;99.90
52203;DHT22;38173;52.850;6.970;2023-04-03T02:51:28;0.30;99.90
52203;DHT22;38173;52.850;6.970;2023-04-03T02:53:54;0.20;99.90
52203;DHT22;38173;52.850;6.970;2023-04-03T02:56:20;0.20;99.90
52203;DHT22;38173;52.850;6.970;2023-04-03T02:58:56;0.20;99.90
52203;DHT22;38173;52.850;6.970;2023-04-03T03:01:22;0.10;99.90
52203;DHT22;38173;52.850;6.970;2023-04-03T03:03:48;0.20;99.90
52203;DHT22;38173;52.850;6.970;2023-04-03T03:06:14;0.10;99.90
52203;DHT22;38173;52.850;6.970;2023-04-03T03:08:40;0.10;99.90
52203;DHT22;38173;52.850;6.970;2023-04-03T03:11:06;0.00;99.90
52203;DHT22;38173;52.850;6.970;2023-04-03T03:13:32;0.00;99.90
52203;DHT22;38173;52.850;6.970;2023-04-03T03:15:58;-0.10;99.90
52203;DHT22;38173;52.850;6.970;2023-04-03T03:18:25;-0.20;99.90
52203;DHT22;38173;52.850;6.970;2023-04-03T03:21:00;-0.20;99.90
52203;DHT22;38173;52.850;6.970;2023-04-03T03:23:27;-0.20;99.90
52203;DHT22;38173;52.850;6.970;2023-04-03T03:25:57;-0.30;99.90
52203;DHT22;38173;52.850;6.970;2023-04-03T03:28:23;-0.30;99.90
52203;DHT22;38173;52.850;6.970;2023-04-03T03:30:49;-0.30;99.90
52203;DHT22;38173;52.850;6.970;2023-04-03T03:33:15;-0.40;99.90
52203;DHT22;38173;52.850;6.970;2023-04-03T03:35:42;-0.40;99.90
52203;DHT22;38173;52.850;6.970;2023-04-03T03:38:10;-0.50;99.90
52203;DHT22;38173;52.850;6.970;2023-04-03T03:40:36;-0.50;99.90
52203;DHT22;38173;52.850;6.970;2023-04-03T03:43:02;-0.60;99.90
52203;DHT22;38173;52.850;6.970;2023-04-03T03:45:28;-0.70;99.90
52203;DHT22;38173;52.850;6.970;2023-04-03T03:47:53;-0.70;99.90
52203;DHT22;38173;52.850;6.970;2023-04-03T03:50:20;-0.80;99.90
52203;DHT22;38173;52.850;6.970;2023-04-03T03:52:49;-0.90;99.90
52203;DHT22;38173;52.850;6.970;2023-04-03T03:55:15;-1.00;99.90
52203;DHT22;38173;52.850;6.970;2023-04-03T03:57:40;-1.00;99.90
52203;DHT22;38173;52.850;6.970;2023-04-03T04:00:06;-1.10;99.90
52203;DHT22;38173;52.850;6.970;2023-04-03T04:02:32;-1.10;99.90
52203;DHT22;38173;52.850;6.970;2023-04-03T04:04:58;-1.10;99.90
52203;DHT22;38173;52.850;6.970;2023-04-03T04:07:24;-1.20;99.90
52203;DHT22;38173;52.850;6.970;2023-04-03T04:09:49;-1.20;99.90
52203;DHT22;38173;52.850;6.970;2023-04-03T04:12:15;-1.30;99.90
52203;DHT22;38173;52.850;6.970;2023-04-03T04:14:41;-1.30;99.90
52203;DHT22;38173;52.850;6.970;2023-04-03T04:17:07;-1.30;99.90
52203;DHT22;38173;52.850;6.970;2023-04-03T04:19:33;-1.30;99.90
52203;DHT22;38173;52.850;6.970;2023-04-03T04:22:01;-1.30;99.90
52203;DHT22;38173;52.850;6.970;2023-04-03T04:24:27;-1.40;99.90
52203;DHT22;38173;52.850;6.970;2023-04-03T04:26:53;-1.40;99.90
52203;DHT22;38173;52.850;6.970;2023-04-03T04:29:19;-1.40;99.90
52203;DHT22;38173;52.850;6.970;2023-04-03T04:31:44;-1.40;99.90
52203;DHT22;38173;52.850;6.970;2023-04-03T04:34:10;-1.30;99.90
52203;DHT22;38173;52.850;6.970;2023-04-03T04:36:38;-1.40;99.90
52203;DHT22;38173;52.850;6.970;2023-04-03T04:39:04;-1.40;99.90
52203;DHT22;38173;52.850;6.970;2023-04-03T04:41:30;-1.30;99.90
52203;DHT22;38173;52.850;6.970;2023-04-03T04:43:59;-1.40;99.90
52203;DHT22;38173;52.850;6.970;2023-04-03T04:46:26;-1.30;99.90
52203;DHT22;38173;52.850;6.970;2023-04-03T04:48:52;-1.30;99.90
52203;DHT22;38173;52.850;6.970;2023-04-03T04:51:24;-1.30;99.90
52203;DHT22;38173;52.850;6.970;2023-04-03T04:53:57;-1.30;99.90
52203;DHT22;38173;52.850;6.970;2023-04-03T04:56:23;-1.30;99.90
52203;DHT22;38173;52.850;6.970;2023-04-03T04:58:51;-1.30;99.90
52203;DHT22;38173;52.850;6.970;2023-04-03T05:01:16;-1.40;99.90
52203;DHT22;38173;52.850;6.970;2023-04-03T05:03:44;-1.30;99.90
52203;DHT22;38173;52.850;6.970;2023-04-03T05:06:10;-1.40;99.90
52203;DHT22;38173;52.850;6.970;2023-04-03T05:08:36;-1.40;99.90
52203;DHT22;38173;52.850;6.970;2023-04-03T05:11:07;-1.40;99.90
52203;DHT22;38173;52.850;6.970;2023-04-03T05:13:33;-1.40;99.90
52203;DHT22;38173;52.850;6.970;2023-04-03T05:15:59;-1.40;99.90
52203;DHT22;38173;52.850;6.970;2023-04-03T05:18:24;-1.40;99.90
52203;DHT22;38173;52.850;6.970;2023-04-03T05:20:50;-1.40;99.90
52203;DHT22;38173;52.850;6.970;2023-04-03T05:23:16;-1.30;99.90
52203;DHT22;38173;52.850;6.970;2023-04-03T05:25:42;-1.30;99.90
52203;DHT22;38173;52.850;6.970;2023-04-03T05:28:10;-1.20;99.90
52203;DHT22;38173;52.850;6.970;2023-04-03T05:30:36;-1.20;99.90
52203;DHT22;38173;52.850;6.970;2023-04-03T05:33:02;-1.20;99.90
52203;DHT22;38173;52.850;6.970;2023-04-03T05:35:28;-1.20;99.90
52203;DHT22;38173;52.850;6.970;2023-04-03T05:38:07;-1.20;99.90
52203;DHT22;38173;52.850;6.970;2023-04-03T05:40:36;-1.10;99.90
52203;DHT22;38173;52.850;6.970;2023-04-03T05:43:06;-1.10;99.90
52203;DHT22;38173;52.850;6.970;2023-04-03T05:45:32;-1.10;99.90
52203;DHT22;38173;52.850;6.970;2023-04-03T05:47:57;-1.00;99.90
52203;DHT22;38173;52.850;6.970;2023-04-03T05:50:23;-0.90;99.90
52203;DHT22;38173;52.850;6.970;2023-04-03T05:52:50;-0.80;99.90
52203;DHT22;38173;52.850;6.970;2023-04-03T05:55:16;-0.80;99.90
52203;DHT22;38173;52.850;6.970;2023-04-03T05:57:42;-0.70;99.90
52203;DHT22;38173;52.850;6.970;2023-04-03T06:00:11;-0.60;99.90
52203;DHT22;38173;52.850;6.970;2023-04-03T06:02:41;-0.60;99.90
52203;DHT22;38173;52.850;6.970;2023-04-03T06:05:07;-0.50;99.90
52203;DHT22;38173;52.850;6.970;2023-04-03T06:07:33;-0.40;99.90
52203;DHT22;38173;52.850;6.970;2023-04-03T06:10:02;-0.30;99.90
52203;DHT22;38173;52.850;6.970;2023-04-03T06:12:29;-0.30;99.90
52203;DHT22;38173;52.850;6.970;2023-04-03T06:14:55;-0.10;99.90
52203;DHT22;38173;52.850;6.970;2023-04-03T06:17:20;0.00;99.90
52203;DHT22;38173;52.850;6.970;2023-04-03T06:19:46;0.10;99.90
52203;DHT22;38173;52.850;6.970;2023-04-03T06:22:24;0.10;99.90
52203;DHT22;38173;52.850;6.970;2023-04-03T06:24:51;0.20;99.90
52203;DHT22;38173;52.850;6.970;2023-04-03T06:27:16;0.30;99.90
52203;DHT22;38173;52.850;6.970;2023-04-03T06:29:42;0.40;99.90
52203;DHT22;38173;52.850;6.970;2023-04-03T06:32:08;0.50;99.90
52203;DHT22;38173;52.850;6.970;2023-04-03T06:34:34;0.60;99.90
52203;DHT22;38173;52.850;6.970;2023-04-03T06:37:00;0.70;99.90
52203;DHT22;38173;52.850;6.970;2023-04-03T06:39:26;0.80;99.90
52203;DHT22;38173;52.850;6.970;2023-04-03T06:41:52;1.00;99.90
52203;DHT22;38173;52.850;6.970;2023-04-03T06:44:44;1.10;99.90
52203;DHT22;38173;52.850;6.970;2023-04-03T06:47:13;1.20;99.90
52203;DHT22;38173;52.850;6.970;2023-04-03T06:49:39;1.40;99.90
52203;DHT22;38173;52.850;6.970;2023-04-03T06:52:05;1.50;99.90
52203;DHT22;38173;52.850;6.970;2023-04-03T06:54:31;1.60;99.90
52203;DHT22;38173;52.850;6.970;2023-04-03T06:56:57;1.70;99.90
52203;DHT22;38173;52.850;6.970;2023-04-03T06:59:23;1.80;99.90
52203;DHT22;38173;52.850;6.970;2023-04-03T07:01:49;1.90;99.90
52203;DHT22;38173;52.850;6.970;2023-04-03T07:04:15;2.00;99.90
52203;DHT22;38173;52.850;6.970;2023-04-03T07:06:40;2.10;99.90
52203;DHT22;38173;52.850;6.970;2023-04-03T07:09:08;2.20;99.90
52203;DHT22;38173;52.850;6.970;2023-04-03T07:11:34;2.30;99.90
52203;DHT22;38173;52.850;6.970;2023-04-03T07:14:01;2.40;99.90
52203;DHT22;38173;52.850;6.970;2023-04-03T07:16:27;2.40;99.90
52203;DHT22;38173;52.850;6.970;2023-04-03T07:18:54;2.60;99.90
52203;DHT22;38173;52.850;6.970;2023-04-03T07:21:19;2.60;99.90
52203;DHT22;38173;52.850;6.970;2023-04-03T07:23:45;2.70;99.90
52203;DHT22;38173;52.850;6.970;2023-04-03T07:26:11;2.80;99.90
52203;DHT22;38173;52.850;6.970;2023-04-03T07:28:36;2.90;99.90
52203;DHT22;38173;52.850;6.970;2023-04-03T07:31:05;2.90;99.90
52203;DHT22;38173;52.850;6.970;2023-04-03T07:33:31;3.00;99.90
52203;DHT22;38173;52.850;6.970;2023-04-03T07:35:58;3.20;99.90
52203;DHT22;38173;52.850;6.970;2023-04-03T07:38:25;3.20;99.90
52203;DHT22;38173;52.850;6.970;2023-04-03T07:40:51;3.30;99.90
52203;DHT22;38173;52.850;6.970;2023-04-03T07:43:18;3.40;99.90
52203;DHT22;38173;52.850;6.970;2023-04-03T07:45:46;3.50;99.90
52203;DHT22;38173;52.850;6.970;2023-04-03T07:48:15;3.60;99.90
52203;DHT22;38173;52.850;6.970;2023-04-03T07:50:43;3.70;99.90
52203;DHT22;38173;52.850;6.970;2023-04-03T07:53:09;3.80;99.90
52203;DHT22;38173;52.850;6.970;2023-04-03T07:55:36;3.80;99.90
52203;DHT22;38173;52.850;6.970;2023-04-03T07:58:12;3.90;99.90
52203;DHT22;38173;52.850;6.970;2023-04-03T08:00:38;4.00;99.90
52203;DHT22;38173;52.850;6.970;2023-04-03T08:03:04;4.00;99.90
52203;DHT22;38173;52.850;6.970;2023-04-03T08:05:31;4.10;99.90
52203;DHT22;38173;52.850;6.970;2023-04-03T08:07:57;4.20;99.90
52203;DHT22;38173;52.850;6.970;2023-04-03T08:10:22;4.30;99.90
52203;DHT22;38173;52.850;6.970;2023-04-03T08:12:48;4.50;99.90
52203;DHT22;38173;52.850;6.970;2023-04-03T08:15:15;4.50;99.90
52203;DHT22;38173;52.850;6.970;2023-04-03T08:17:42;4.60;99.90
52203;DHT22;38173;52.850;6.970;2023-04-03T08:20:09;4.70;99.90
52203;DHT22;38173;52.850;6.970;2023-04-03T08:22:35;4.80;99.90
52203;DHT22;38173;52.850;6.970;2023-04-03T08:25:01;4.90;99.90
52203;DHT22;38173;52.850;6.970;2023-04-03T08:27:28;4.90;99.90
52203;DHT22;38173;52.850;6.970;2023-04-03T08:29:55;5.00;99.90
52203;DHT22;38173;52.850;6.970;2023-04-03T08:32:21;5.10;99.90
52203;DHT22;38173;52.850;6.970;2023-04-03T08:34:46;5.20;99.90
52203;DHT22;38173;52.850;6.970;2023-04-03T08:37:18;5.20;99.90
52203;DHT22;38173;52.850;6.970;2023-04-03T08:39:44;5.30;99.90
52203;DHT22;38173;52.850;6.970;2023-04-03T08:42:15;5.40;99.90
52203;DHT22;38173;52.850;6.970;2023-04-03T08:49:50;5.70;99.90
52203;DHT22;38173;52.850;6.970;2023-04-03T08:52:59;5.80;99.90
52203;DHT22;38173;52.850;6.970;2023-04-03T08:57:43;5.90;99.90
52203;DHT22;38173;52.850;6.970;2023-04-03T09:02:46;6.20;99.90
52203;DHT22;38173;52.850;6.970;2023-04-03T09:05:20;6.20;99.90
52203;DHT22;38173;52.850;6.970;2023-04-03T09:07:58;6.30;99.90
52203;DHT22;38173;52.850;6.970;2023-04-03T09:10:29;6.40;99.90
52203;DHT22;38173;52.850;6.970;2023-04-03T09:13:06;6.40;99.90
52203;DHT22;38173;52.850;6.970;2023-04-03T09:15:33;6.60;99.90
52203;DHT22;38173;52.850;6.970;2023-04-03T09:18:04;6.70;99.90
52203;DHT22;38173;52.850;6.970;2023-04-03T09:23:08;6.90;99.90
52203;DHT22;38173;52.850;6.970;2023-04-03T09:25:37;7.00;99.90
52203;DHT22;38173;52.850;6.970;2023-04-03T09:28:07;7.10;99.90
52203;DHT22;38173;52.850;6.970;2023-04-03T09:30:36;7.20;99.90
52203;DHT22;38173;52.850;6.970;2023-04-03T09:33:03;7.20;99.90
52203;DHT22;38173;52.850;6.970;2023-04-03T09:35:31;7.40;99.90
52203;DHT22;38173;52.850;6.970;2023-04-03T09:38:01;7.50;99.90
52203;DHT22;38173;52.850;6.970;2023-04-03T09:40:43;7.60;99.90
52203;DHT22;38173;52.850;6.970;2023-04-03T09:43:19;7.70;99.90
52203;DHT22;38173;52.850;6.970;2023-04-03T09:45:46;7.90;99.40
52203;DHT22;38173;52.850;6.970;2023-04-03T09:55:53;8.20;98.20
52203;DHT22;38173;52.850;6.970;2023-04-03T09:58:27;8.30;97.50
52203;DHT22;38173;52.850;6.970;2023-04-03T10:00:57;8.40;96.50
52203;DHT22;38173;52.850;6.970;2023-04-03T10:03:24;8.50;98.40
52203;DHT22;38173;52.850;6.970;2023-04-03T10:05:55;8.70;97.40
52203;DHT22;38173;52.850;6.970;2023-04-03T10:13:37;8.90;95.90
52203;DHT22;38173;52.850;6.970;2023-04-03T10:16:15;9.10;93.50
52203;DHT22;38173;52.850;6.970;2023-04-03T10:18:44;9.20;94.20
52203;DHT22;38173;52.850;6.970;2023-04-03T10:21:35;9.30;92.70
52203;DHT22;38173;52.850;6.970;2023-04-03T10:24:02;9.30;92.50
52203;DHT22;38173;52.850;6.970;2023-04-03T10:26:35;9.30;94.00
52203;DHT22;38173;52.850;6.970;2023-04-03T10:32:17;9.50;80.10
52203;DHT22;38173;52.850;6.970;2023-04-03T10:34:52;9.60;92.00
52203;DHT22;38173;52.850;6.970;2023-04-03T10:37:29;9.70;92.90
52203;DHT22;38173;52.850;6.970;2023-04-03T10:49:51;10.20;88.80
52203;DHT22;38173;52.850;6.970;2023-04-03T10:52:20;10.30;72.40
52203;DHT22;38173;52.850;6.970;2023-04-03T10:57:22;10.20;68.30
52203;DHT22;38173;52.850;6.970;2023-04-03T11:02:27;10.60;70.60
52203;DHT22;38173;52.850;6.970;2023-04-03T11:04:59;10.90;68.90
52203;DHT22;38173;52.850;6.970;2023-04-03T11:07:26;11.00;73.30
52203;DHT22;38173;52.850;6.970;2023-04-03T11:09:55;11.00;65.60
52203;DHT22;38173;52.850;6.970;2023-04-03T11:12:41;11.20;72.60
52203;DHT22;38173;52.850;6.970;2023-04-03T11:15:29;11.30;71.80
52203;DHT22;38173;52.850;6.970;2023-04-03T11:18:31;11.50;64.90
52203;DHT22;38173;52.850;6.970;2023-04-03T11:20:59;11.70;60.80
52203;DHT22;38173;52.850;6.970;2023-04-03T11:23:31;11.90;61.40
52203;DHT22;38173;52.850;6.970;2023-04-03T11:26:07;12.10;64.70
52203;DHT22;38173;52.850;6.970;2023-04-03T11:28:45;12.20;62.70
52203;DHT22;38173;52.850;6.970;2023-04-03T11:31:22;12.10;64.70
52203;DHT22;38173;52.850;6.970;2023-04-03T11:36:19;11.70;62.30
52203;DHT22;38173;52.850;6.970;2023-04-03T11:38:48;11.50;60.30
52203;DHT22;38173;52.850;6.970;2023-04-03T11:41:21;11.50;64.30
52203;DHT22;38173;52.850;6.970;2023-04-03T11:44:00;11.50;65.40
52203;DHT22;38173;52.850;6.970;2023-04-03T11:46:57;11.50;61.90
52203;DHT22;38173;52.850;6.970;2023-04-03T11:52:11;11.00;62.10
52203;DHT22;38173;52.850;6.970;2023-04-03T11:57:22;10.80;64.80
52203;DHT22;38173;52.850;6.970;2023-04-03T11:59:50;10.70;64.30
52203;DHT22;38173;52.850;6.970;2023-04-03T12:02:35;10.60;75.90
52203;DHT22;38173;52.850;6.970;2023-04-03T12:08:10;10.50;70.00
52203;DHT22;38173;52.850;6.970;2023-04-03T12:10:32;10.60;66.10
52203;DHT22;38173;52.850;6.970;2023-04-03T12:12:58;10.60;73.40
52203;DHT22;38173;52.850;6.970;2023-04-03T12:21:04;10.30;75.70
52203;DHT22;38173;52.850;6.970;2023-04-03T12:23:31;10.30;62.90
52203;DHT22;38173;52.850;6.970;2023-04-03T12:26:05;10.10;66.80
52203;DHT22;38173;52.850;6.970;2023-04-03T12:28:38;9.90;70.00
52203;DHT22;38173;52.850;6.970;2023-04-03T12:31:05;9.90;69.60
52203;DHT22;38173;52.850;6.970;2023-04-03T12:33:38;9.70;59.80
52203;DHT22;38173;52.850;6.970;2023-04-03T12:36:18;9.60;62.10
52203;DHT22;38173;52.850;6.970;2023-04-03T12:41:18;9.60;72.80
52203;DHT22;38173;52.850;6.970;2023-04-03T12:43:50;9.80;75.70
52203;DHT22;38173;52.850;6.970;2023-04-03T12:46:34;9.90;72.50
52203;DHT22;38173;52.850;6.970;2023-04-03T12:49:05;10.00;66.70
52203;DHT22;38173;52.850;6.970;2023-04-03T12:51:39;10.10;76.50
52203;DHT22;38173;52.850;6.970;2023-04-03T12:57:11;10.30;64.60
52203;DHT22;38173;52.850;6.970;2023-04-03T12:59:40;10.30;63.00
52203;DHT22;38173;52.850;6.970;2023-04-03T13:04:52;10.20;62.70
52203;DHT22;38173;52.850;6.970;2023-04-03T13:07:23;10.30;60.30
52203;DHT22;38173;52.850;6.970;2023-04-03T13:09:58;10.50;59.20
52203;DHT22;38173;52.850;6.970;2023-04-03T13:12:25;10.60;63.90
52203;DHT22;38173;52.850;6.970;2023-04-03T13:14:55;10.50;59.80
52203;DHT22;38173;52.850;6.970;2023-04-03T13:17:22;10.30;70.80
52203;DHT22;38173;52.850;6.970;2023-04-03T13:19:48;10.30;72.70
52203;DHT22;38173;52.850;6.970;2023-04-03T13:25:01;10.80;69.90
52203;DHT22;38173;52.850;6.970;2023-04-03T13:27:33;11.20;64.90
52203;DHT22;38173;52.850;6.970;2023-04-03T13:30:25;11.30;64.90
52203;DHT22;38173;52.850;6.970;2023-04-03T13:32:54;11.70;61.70
52203;DHT22;38173;52.850;6.970;2023-04-03T13:35:37;12.40;61.00
52203;DHT22;38173;52.850;6.970;2023-04-03T13:38:07;13.00;57.90
52203;DHT22;38173;52.850;6.970;2023-04-03T13:40:57;13.70;59.90
52203;DHT22;38173;52.850;6.970;2023-04-03T13:43:24;14.40;55.20
52203;DHT22;38173;52.850;6.970;2023-04-03T13:45:57;15.10;56.00
52203;DHT22;38173;52.850;6.970;2023-04-03T13:48:23;15.80;57.80
52203;DHT22;38173;52.850;6.970;2023-04-03T13:51:03;16.70;51.60
52203;DHT22;38173;52.850;6.970;2023-04-03T13:53:30;17.10;48.00
52203;DHT22;38173;52.850;6.970;2023-04-03T13:58:35;17.80;48.10
52203;DHT22;38173;52.850;6.970;2023-04-03T14:03:53;18.60;49.20
52203;DHT22;38173;52.850;6.970;2023-04-03T14:06:17;18.50;48.40
52203;DHT22;38173;52.850;6.970;2023-04-03T14:08:44;18.70;50.90
52203;DHT22;38173;52.850;6.970;2023-04-03T14:11:21;19.00;51.20
52203;DHT22;38173;52.850;6.970;2023-04-03T14:13:59;19.30;45.60
52203;DHT22;38173;52.850;6.970;2023-04-03T14:16:27;19.50;49.50
52203;DHT22;38173;52.850;6.970;2023-04-03T14:18:56;19.80;49.70
52203;DHT22;38173;52.850;6.970;2023-04-03T14:21:22;19.90;51.00
52203;DHT22;38173;52.850;6.970;2023-04-03T14:23:47;20.20;50.60
52203;DHT22;38173;52.850;6.970;2023-04-03T14:26:14;20.20;47.40
52203;DHT22;38173;52.850;6.970;2023-04-03T14:28:45;20.20;48.40
52203;DHT22;38173;52.850;6.970;2023-04-03T14:31:11;20.10;47.90
52203;DHT22;38173;52.850;6.970;2023-04-03T14:33:37;19.60;43.80
52203;DHT22;38173;52.850;6.970;2023-04-03T14:36:17;19.40;47.40
52203;DHT22;38173;52.850;6.970;2023-04-03T14:38:43;19.20;49.70
52203;DHT22;38173;52.850;6.970;2023-04-03T14:41:11;18.80;44.70
52203;DHT22;38173;52.850;6.970;2023-04-03T14:43:37;18.60;43.70
52203;DHT22;38173;52.850;6.970;2023-04-03T14:46:04;18.40;44.90
52203;DHT22;38173;52.850;6.970;2023-04-03T14:48:33;18.30;45.20
52203;DHT22;38173;52.850;6.970;2023-04-03T14:50:59;18.00;43.70
52203;DHT22;38173;52.850;6.970;2023-04-03T14:53:25;18.20;45.10
52203;DHT22;38173;52.850;6.970;2023-04-03T14:55:51;18.20;44.20
52203;DHT22;38173;52.850;6.970;2023-04-03T14:58:18;18.10;43.00
52203;DHT22;38173;52.850;6.970;2023-04-03T15:00:44;18.10;45.20
52203;DHT22;38173;52.850;6.970;2023-04-03T15:03:12;18.50;43.30
52203;DHT22;38173;52.850;6.970;2023-04-03T15:05:42;19.20;46.50
52203;DHT22;38173;52.850;6.970;2023-04-03T15:08:13;19.80;42.20
52203;DHT22;38173;52.850;6.970;2023-04-03T15:10:42;20.00;41.60
52203;DHT22;38173;52.850;6.970;2023-04-03T15:13:12;19.70;38.90
52203;DHT22;38173;52.850;6.970;2023-04-03T15:15:38;19.70;38.10
52203;DHT22;38173;52.850;6.970;2023-04-03T15:18:14;20.10;43.90
52203;DHT22;38173;52.850;6.970;2023-04-03T15:20:47;19.70;39.10
52203;DHT22;38173;52.850;6.970;2023-04-03T15:23:22;19.80;41.40
52203;DHT22;38173;52.850;6.970;2023-04-03T15:25:51;19.80;41.40
52203;DHT22;38173;52.850;6.970;2023-04-03T15:28:19;19.80;40.20
52203;DHT22;38173;52.850;6.970;2023-04-03T15:30:47;19.90;44.00
52203;DHT22;38173;52.850;6.970;2023-04-03T15:33:13;19.90;42.10
52203;DHT22;38173;52.850;6.970;2023-04-03T15:35:41;20.10;44.10
52203;DHT22;38173;52.850;6.970;2023-04-03T15:38:07;20.20;45.60
52203;DHT22;38173;52.850;6.970;2023-04-03T15:40:33;20.30;42.00
52203;DHT22;38173;52.850;6.970;2023-04-03T15:43:00;20.40;41.60
52203;DHT22;38173;52.850;6.970;2023-04-03T15:45:27;20.20;43.70
52203;DHT22;38173;52.850;6.970;2023-04-03T15:47:54;20.20;43.70
52203;DHT22;38173;52.850;6.970;2023-04-03T15:50:22;20.40;45.20
52203;DHT22;38173;52.850;6.970;2023-04-03T15:52:54;20.80;47.20
52203;DHT22;38173;52.850;6.970;2023-04-03T15:57:50;21.30;43.30
52203;DHT22;38173;52.850;6.970;2023-04-03T16:00:19;21.00;46.50
52203;DHT22;38173;52.850;6.970;2023-04-03T16:02:48;20.80;41.60
52203;DHT22;38173;52.850;6.970;2023-04-03T16:05:15;20.60;42.20
52203;DHT22;38173;52.850;6.970;2023-04-03T16:07:42;20.50;45.20
52203;DHT22;38173;52.850;6.970;2023-04-03T16:10:09;20.70;41.80
52203;DHT22;38173;52.850;6.970;2023-04-03T16:12:42;20.80;44.20
52203;DHT22;38173;52.850;6.970;2023-04-03T16:15:08;21.10;44.00
52203;DHT22;38173;52.850;6.970;2023-04-03T16:17:34;21.40;44.20
52203;DHT22;38173;52.850;6.970;2023-04-03T16:20:00;21.70;41.00
52203;DHT22;38173;52.850;6.970;2023-04-03T16:22:30;22.00;46.50
52203;DHT22;38173;52.850;6.970;2023-04-03T16:25:20;22.10;44.90
52203;DHT22;38173;52.850;6.970;2023-04-03T16:27:54;22.40;45.80
52203;DHT22;38173;52.850;6.970;2023-04-03T16:30:20;22.30;44.20
52203;DHT22;38173;52.850;6.970;2023-04-03T16:32:52;21.70;43.40
52203;DHT22;38173;52.850;6.970;2023-04-03T16:35:24;21.60;46.10
52203;DHT22;38173;52.850;6.970;2023-04-03T16:37:52;21.80;44.20
52203;DHT22;38173;52.850;6.970;2023-04-03T16:40:21;21.80;41.80
52203;DHT22;38173;52.850;6.970;2023-04-03T16:42:47;21.80;43.90
52203;DHT22;38173;52.850;6.970;2023-04-03T16:45:13;21.90;44.40
52203;DHT22;38173;52.850;6.970;2023-04-03T16:47:39;21.70;42.90
52203;DHT22;38173;52.850;6.970;2023-04-03T16:50:05;21.60;41.00
52203;DHT22;38173;52.850;6.970;2023-04-03T16:52:31;21.50;42.10
52203;DHT22;38173;52.850;6.970;2023-04-03T16:54:56;21.20;38.80
52203;DHT22;38173;52.850;6.970;2023-04-03T16:57:24;21.30;41.30
52203;DHT22;38173;52.850;6.970;2023-04-03T16:59:50;21.00;42.20
52203;DHT22;38173;52.850;6.970;2023-04-03T17:02:16;20.00;40.70
52203;DHT22;38173;52.850;6.970;2023-04-03T17:04:43;18.90;43.00
52203;DHT22;38173;52.850;6.970;2023-04-03T17:07:09;17.60;39.00
52203;DHT22;38173;52.850;6.970;2023-04-03T17:09:34;16.60;44.40
52203;DHT22;38173;52.850;6.970;2023-04-03T17:12:03;15.20;42.60
52203;DHT22;38173;52.850;6.970;2023-04-03T17:14:29;14.10;43.30